createdAt,value
2017-12-16T09:27:15.787Z,74.2
2017-12-16T09:27:32.435Z,74.2
2017-12-16T09:28:34.839Z,75.4
2017-12-16T09:29:37.525Z,76.9
2017-12-16T09:30:40.225Z,77.9
2017-12-16T09:31:42.629Z,78.6
2017-12-16T09:32:45.037Z,79.4
2017-12-16T09:33:47.732Z,80.1
2017-12-16T09:34:50.124Z,80.5
2017-12-16T09:35:52.553Z,81
2017-12-16T09:36:55.555Z,81.2
2017-12-16T09:37:57.958Z,81.4
2017-12-16T09:39:00.374Z,81.8
2017-12-16T09:40:02.780Z,81.8
2017-12-16T09:41:05.188Z,82
2017-12-16T09:42:07.884Z,82.2
2017-12-16T09:43:10.280Z,82.2
2017-12-16T09:44:12.699Z,82.1
2017-12-16T09:45:15.115Z,82.1
2017-12-16T09:46:17.815Z,82.2
2017-12-16T09:47:20.216Z,82.3
2017-12-16T09:48:22.629Z,82.3
2017-12-16T09:49:25.041Z,82.3
2017-12-16T09:50:27.478Z,81.4
2017-12-16T09:51:29.884Z,81.3
2017-12-16T09:52:32.574Z,81.4
2017-12-16T09:53:34.988Z,81.2
2017-12-16T09:54:37.419Z,81.2
2017-12-16T09:55:40.401Z,81.1
2017-12-16T09:56:42.816Z,81
2017-12-16T09:57:45.225Z,80.6
2017-12-16T09:58:47.643Z,80.8
2017-12-16T09:59:50.047Z,80.8
2017-12-16T10:00:52.456Z,80.7
2017-12-16T10:01:54.879Z,80.7
2017-12-16T10:02:57.287Z,80.8
2017-12-16T10:03:59.691Z,80.9
2017-12-16T10:05:03.007Z,80.8
2017-12-16T10:06:07.361Z,80.5
2017-12-16T10:07:09.779Z,80.5
2017-12-16T10:08:12.196Z,81.5
2017-12-16T10:09:14.592Z,81.5
2017-12-16T10:10:17.009Z,81.7
2017-12-16T10:11:19.709Z,81.8
2017-12-16T10:12:22.124Z,81.7
2017-12-16T10:13:24.536Z,81.7
2017-12-16T10:14:26.945Z,81.9
2017-12-16T10:15:29.926Z,81.9
2017-12-16T10:16:32.341Z,82.1
2017-12-16T10:17:34.758Z,82.4
2017-12-16T10:18:37.161Z,82.5
2017-12-16T10:19:39.872Z,82.4
2017-12-16T10:20:42.275Z,82.4
2017-12-16T10:21:44.692Z,82.7
2017-12-16T10:22:47.110Z,83
2017-12-16T10:23:49.514Z,82.9
2017-12-16T10:24:51.925Z,82.6
2017-12-16T10:25:54.346Z,82.6
2017-12-16T10:26:56.759Z,82.7
2017-12-16T10:27:59.175Z,82.9
2017-12-16T10:29:01.874Z,82.9
2017-12-16T10:30:04.285Z,83.1
2017-12-16T10:31:07.179Z,83.3
2017-12-16T10:32:13.057Z,83.3
2017-12-16T10:33:15.469Z,82.3
2017-12-16T10:34:17.885Z,82.2
2017-12-16T10:35:20.472Z,82.3
2017-12-16T10:36:23.742Z,82.8
2017-12-16T10:37:26.292Z,83.2
2017-12-16T10:38:28.706Z,83.4
2017-12-16T10:39:31.115Z,83.5
2017-12-16T10:40:33.525Z,83.5
2017-12-16T10:41:35.941Z,83.4
2017-12-16T10:42:38.344Z,83.5
2017-12-16T10:43:40.751Z,84.1
2017-12-16T10:44:43.178Z,84.8
2017-12-16T10:45:45.592Z,85.1
2017-12-16T10:46:47.994Z,85.3
2017-12-16T10:47:50.408Z,84.8
2017-12-16T10:48:52.817Z,84.4
2017-12-16T10:49:55.235Z,84.3
2017-12-16T10:50:57.651Z,84.6
2017-12-16T10:52:00.058Z,85
2017-12-16T10:53:02.465Z,84.7
2017-12-16T10:54:04.894Z,84.3
2017-12-16T10:55:07.300Z,83.7
2017-12-16T10:56:09.990Z,83.6
2017-12-16T10:57:12.687Z,83.5
2017-12-16T10:58:15.093Z,83.6
2017-12-16T10:59:17.495Z,84
2017-12-16T11:00:19.921Z,83.5
2017-12-16T11:01:22.616Z,83.1
2017-12-16T11:02:25.037Z,82.9
2017-12-16T11:03:27.742Z,83
2017-12-16T11:04:30.148Z,82.7
2017-12-16T11:05:32.558Z,82.7
2017-12-16T11:06:34.984Z,82.8
2017-12-16T11:07:37.383Z,82.9
2017-12-16T11:08:39.790Z,82.6
2017-12-16T11:09:42.203Z,82.3
2017-12-16T11:10:44.609Z,82.3
2017-12-16T11:11:47.027Z,82.5
2017-12-16T11:12:49.436Z,82.3
2017-12-16T11:13:51.849Z,82.5
2017-12-16T11:14:54.261Z,82.6
2017-12-16T11:15:57.242Z,82.6
2017-12-16T11:16:59.667Z,82.8
2017-12-16T11:18:02.346Z,82.4
2017-12-16T11:19:04.773Z,82.4
2017-12-16T11:20:07.242Z,82.9
2017-12-16T11:21:09.896Z,82.9
2017-12-16T11:22:12.302Z,82.9
2017-12-16T11:23:14.717Z,83.2
2017-12-16T11:24:17.399Z,83.1
2017-12-16T11:25:19.814Z,82.9
2017-12-16T11:26:22.262Z,82.9
2017-12-16T11:27:24.953Z,82.9
2017-12-16T11:28:27.369Z,82.6
2017-12-16T11:29:29.786Z,82.4
2017-12-16T11:30:32.196Z,82.7
2017-12-16T11:31:34.613Z,82.5
2017-12-16T11:32:37.027Z,82.2
2017-12-16T11:33:39.431Z,81.8
2017-12-16T11:34:41.863Z,81.7
2017-12-16T11:35:44.275Z,81.6
2017-12-16T11:36:46.683Z,81.7
2017-12-16T11:37:49.098Z,81.8
2017-12-16T11:38:51.510Z,82.1
2017-12-16T11:39:53.922Z,82.3
2017-12-16T11:40:56.342Z,82.1
2017-12-16T11:41:59.047Z,82.3
2017-12-16T11:43:01.461Z,82.4
2017-12-16T11:44:03.868Z,82.3
2017-12-16T11:45:06.285Z,82.1
2017-12-16T11:46:08.708Z,82
2017-12-16T11:47:11.404Z,82.2
2017-12-16T11:48:13.815Z,82.3
2017-12-16T11:49:16.254Z,82.6
2017-12-16T11:50:18.952Z,82.7
2017-12-16T11:51:21.366Z,82.7
2017-12-16T11:52:23.769Z,82.8
2017-12-16T11:53:26.176Z,82.5
2017-12-16T11:54:28.592Z,82.6
2017-12-16T11:55:31.284Z,82.7
2017-12-16T11:56:33.700Z,82.7
2017-12-16T11:57:36.119Z,82.3
2017-12-16T11:58:38.558Z,82.3
2017-12-16T11:59:41.271Z,82.3
2017-12-16T12:00:43.689Z,82.3
2017-12-16T12:01:46.098Z,82.1
2017-12-16T12:02:48.502Z,82.2
2017-12-16T12:03:50.918Z,82.3
2017-12-16T12:04:53.328Z,82.4
2017-12-16T12:05:55.743Z,82.4
2017-12-16T12:06:58.154Z,82.7
2017-12-16T12:08:00.563Z,83
2017-12-16T12:09:02.967Z,83.5
2017-12-16T12:10:05.960Z,84.1
2017-12-16T12:11:08.377Z,84.3
2017-12-16T12:12:11.082Z,84.1
2017-12-16T12:13:13.487Z,84.4
2017-12-16T12:14:15.909Z,84.6
2017-12-16T12:15:18.326Z,85.1
2017-12-16T12:16:21.026Z,85.2
2017-12-16T12:17:23.446Z,84.6
2017-12-16T12:18:25.852Z,84.2
2017-12-16T12:19:28.263Z,84
2017-12-16T12:20:30.685Z,83.4
2017-12-16T12:21:33.087Z,83.1
2017-12-16T12:22:35.502Z,82.9
2017-12-16T12:23:37.910Z,82.9
2017-12-16T12:24:40.324Z,82.2
2017-12-16T12:25:42.738Z,81.6
2017-12-16T12:26:45.151Z,81.9
2017-12-16T12:27:47.565Z,81.8
2017-12-16T12:28:49.978Z,82
2017-12-16T12:29:52.391Z,82
2017-12-16T12:30:55.086Z,82.1
2017-12-16T12:31:57.507Z,82.3
2017-12-16T12:32:59.910Z,82.3
2017-12-16T12:34:02.329Z,82.3
2017-12-16T12:35:04.741Z,82.3
2017-12-16T12:36:07.160Z,82.2
2017-12-16T12:37:09.573Z,82.4
2017-12-16T12:38:11.985Z,82.3
2017-12-16T12:39:14.397Z,82.3
2017-12-16T12:40:17.109Z,82.2
2017-12-16T12:41:19.518Z,82.4
2017-12-16T12:42:21.936Z,82.5
2017-12-16T12:43:24.351Z,82.5
2017-12-16T12:44:26.758Z,82.8
2017-12-16T12:45:29.481Z,82.7
2017-12-16T12:46:31.905Z,82.4
2017-12-16T12:47:34.303Z,82.3
2017-12-16T12:48:36.720Z,82.5
2017-12-16T12:49:39.129Z,82.7
2017-12-16T12:50:41.824Z,82.9
2017-12-16T12:51:44.238Z,83
2017-12-16T12:52:46.651Z,82.9
2017-12-16T12:53:49.063Z,82.6
2017-12-16T12:54:51.487Z,82.6
2017-12-16T12:55:53.898Z,82.8
2017-12-16T12:56:56.606Z,82.9
2017-12-16T12:57:59.010Z,82.9
2017-12-16T12:59:01.424Z,82.9
2017-12-16T13:00:03.841Z,82.9
2017-12-16T13:01:06.252Z,83
2017-12-16T13:02:08.671Z,82.8
2017-12-16T13:03:11.090Z,82.5
2017-12-16T13:04:13.788Z,82.4
2017-12-16T13:05:16.220Z,82.2
2017-12-16T13:06:18.633Z,82.2
2017-12-16T13:07:21.037Z,82.1
2017-12-16T13:08:23.448Z,82.1
2017-12-16T13:09:25.859Z,82
2017-12-16T13:10:28.275Z,82.1
2017-12-16T13:11:30.701Z,81.8
2017-12-16T13:12:33.099Z,81.5
2017-12-16T13:13:35.793Z,81.6
2017-12-16T13:14:38.213Z,81.7
2017-12-16T13:15:40.624Z,81.9
2017-12-16T13:16:43.042Z,82.1
2017-12-16T13:17:45.461Z,82.1
2017-12-16T13:18:47.866Z,82
2017-12-16T13:19:50.289Z,81.9
2017-12-16T13:20:52.706Z,81.9
2017-12-16T13:21:55.109Z,81.9
2017-12-16T13:22:57.831Z,82
2017-12-16T13:24:00.248Z,82
2017-12-16T13:25:02.655Z,82.3
2017-12-16T13:26:05.058Z,82.5
2017-12-16T13:27:07.472Z,82.5
2017-12-16T13:28:09.887Z,82.3
2017-12-16T13:29:12.298Z,82.2
2017-12-16T13:30:15.002Z,82
2017-12-16T13:31:17.403Z,82
2017-12-16T13:32:19.821Z,82.2
2017-12-16T13:33:22.233Z,82.3
2017-12-16T13:34:24.646Z,82.2
2017-12-16T13:35:27.352Z,82.3
2017-12-16T13:36:29.763Z,82.5
2017-12-16T13:37:32.165Z,82.6
2017-12-16T13:38:34.860Z,82.6
2017-12-16T13:39:37.271Z,82.6
2017-12-16T13:40:39.690Z,82.3
2017-12-16T13:41:42.103Z,82.3
2017-12-16T13:42:44.794Z,82.2
2017-12-16T13:43:47.488Z,82
2017-12-16T13:44:49.895Z,82.3
2017-12-16T13:45:52.299Z,82.5
2017-12-16T13:46:54.722Z,82.6
2017-12-16T13:47:57.409Z,82.5
2017-12-16T13:48:59.827Z,82.4
2017-12-16T13:50:02.236Z,82.4
2017-12-16T13:51:04.647Z,82.4
2017-12-16T13:52:07.057Z,82.6
2017-12-16T13:53:09.485Z,82.6
2017-12-16T13:54:11.903Z,82.4
2017-12-16T13:55:14.295Z,82.3
2017-12-16T13:56:16.708Z,82.2
2017-12-16T13:57:19.134Z,82
2017-12-16T13:58:21.556Z,81.9
2017-12-16T13:59:23.969Z,81.8
2017-12-16T14:00:26.380Z,82
2017-12-16T14:01:28.793Z,82
2017-12-16T14:02:31.222Z,81.9
2017-12-16T14:03:33.628Z,82
2017-12-16T14:04:36.029Z,81.7
2017-12-16T14:05:38.435Z,81.8
2017-12-16T14:06:40.849Z,81.9
2017-12-16T14:07:43.263Z,81.8
2017-12-16T14:08:45.681Z,81.7
2017-12-16T14:09:48.081Z,81.8
2017-12-16T14:10:50.790Z,82
2017-12-16T14:11:53.232Z,82.1
2017-12-16T14:12:55.648Z,82
2017-12-16T14:13:58.058Z,81.9
2017-12-16T14:15:00.486Z,81.8
2017-12-16T14:16:02.890Z,81.7
2017-12-16T14:17:05.314Z,81.7
2017-12-16T14:18:07.732Z,81.6
2017-12-16T14:19:10.134Z,81.6
2017-12-16T14:20:12.829Z,81.5
2017-12-16T14:21:15.248Z,81.7
2017-12-16T14:22:17.668Z,81.8
2017-12-16T14:23:20.081Z,81.9
2017-12-16T14:24:22.494Z,81.9
2017-12-16T14:25:24.908Z,82.1
2017-12-16T14:26:27.600Z,82.2
2017-12-16T14:27:30.013Z,82.2
2017-12-16T14:28:32.442Z,82.1
2017-12-16T14:29:34.860Z,82
2017-12-16T14:30:37.543Z,82
2017-12-16T14:31:39.957Z,81.8
2017-12-16T14:32:42.388Z,81.8
2017-12-16T14:33:45.081Z,81.8
2017-12-16T14:34:47.497Z,81.9
2017-12-16T14:35:49.899Z,82.1
2017-12-16T14:36:52.887Z,82.3
2017-12-16T14:37:55.310Z,82.2
2017-12-16T14:38:57.716Z,82.2
2017-12-16T14:40:00.134Z,82.1
2017-12-16T14:41:02.543Z,81.9
2017-12-16T14:42:04.944Z,81.9
2017-12-16T14:43:07.657Z,81.9
2017-12-16T14:44:10.104Z,81.9
2017-12-16T14:45:12.513Z,82
2017-12-16T14:46:15.223Z,82
2017-12-16T14:47:17.642Z,82
2017-12-16T14:48:20.056Z,82
2017-12-16T14:49:22.474Z,82
2017-12-16T14:50:25.168Z,82
2017-12-16T14:51:27.571Z,81.8
2017-12-16T14:52:30.001Z,81.8
2017-12-16T14:53:32.703Z,81.6
2017-12-16T14:54:35.106Z,81.7
2017-12-16T14:55:37.528Z,81.7
2017-12-16T14:56:39.939Z,81.7
2017-12-16T14:57:42.350Z,81.9
2017-12-16T14:58:44.765Z,82
2017-12-16T14:59:47.476Z,82
2017-12-16T15:00:49.880Z,82
2017-12-16T15:01:52.293Z,81.9
2017-12-16T15:02:54.986Z,82
2017-12-16T15:03:57.411Z,82.1
2017-12-16T15:04:59.836Z,82.1
2017-12-16T15:06:02.540Z,82.2
2017-12-16T15:07:04.974Z,82.1
2017-12-16T15:08:07.693Z,82.1
2017-12-16T15:09:10.095Z,81.9
2017-12-16T15:10:12.517Z,82
2017-12-16T15:11:15.221Z,81.9
2017-12-16T15:12:17.636Z,81.8
2017-12-16T15:13:20.352Z,81.8
2017-12-16T15:14:22.774Z,81.8
2017-12-16T15:15:25.176Z,81.9
2017-12-16T15:16:27.634Z,82
2017-12-16T15:17:30.011Z,82.9
2017-12-16T15:18:32.422Z,82.9
2017-12-16T15:19:34.833Z,83
2017-12-16T15:20:37.237Z,83.1
2017-12-16T15:21:39.650Z,83.3
2017-12-16T15:22:42.068Z,83.3
2017-12-16T15:23:44.475Z,83.4
2017-12-16T15:24:47.183Z,83.5
2017-12-16T15:25:49.608Z,83.2
2017-12-16T15:26:52.012Z,83.3
2017-12-16T15:27:54.717Z,83.3
2017-12-16T15:28:57.131Z,83.2
2017-12-16T15:29:59.562Z,83.3
2017-12-16T15:31:02.361Z,83.2
2017-12-16T15:32:05.606Z,83.1
2017-12-16T15:33:08.012Z,83
2017-12-16T15:34:10.432Z,83.2
2017-12-16T15:35:12.850Z,83
2017-12-16T15:36:15.753Z,83
2017-12-16T15:37:18.160Z,82.7
2017-12-16T15:38:20.573Z,82.8
2017-12-16T15:39:22.992Z,82.9
2017-12-16T15:40:25.403Z,82.7
2017-12-16T15:41:27.846Z,82.8
2017-12-16T15:42:30.228Z,82.8
2017-12-16T15:43:32.629Z,82.8
2017-12-16T15:44:35.058Z,82.7
2017-12-16T15:45:37.753Z,82.6
2017-12-16T15:46:40.164Z,82.5
2017-12-16T15:47:42.578Z,82.6
2017-12-16T15:48:44.997Z,82.5
2017-12-16T15:49:47.407Z,82.6
2017-12-16T15:50:49.835Z,82.8
2017-12-16T15:51:52.243Z,82.9
2017-12-16T15:52:54.940Z,82.9
2017-12-16T15:53:57.361Z,82.9
2017-12-16T15:55:00.054Z,82.9
2017-12-16T15:56:02.759Z,82.9
2017-12-16T15:57:05.172Z,82.9
2017-12-16T15:58:07.586Z,82.9
2017-12-16T15:59:10.008Z,83
2017-12-16T16:00:12.423Z,83
2017-12-16T16:01:14.828Z,83
2017-12-16T16:02:17.246Z,83
2017-12-16T16:03:19.932Z,82.9
2017-12-16T16:04:22.347Z,82.8
2017-12-16T16:05:25.050Z,82.7
2017-12-16T16:06:27.461Z,82.8
2017-12-16T16:07:29.867Z,82.8
2017-12-16T16:08:32.314Z,82.9
2017-12-16T16:09:34.706Z,83.1
2017-12-16T16:10:37.109Z,83.2
2017-12-16T16:11:39.523Z,83.1
2017-12-16T16:12:41.941Z,83
2017-12-16T16:13:44.348Z,83
2017-12-16T16:14:46.802Z,83.2
2017-12-16T16:15:49.165Z,83.3
2017-12-16T16:16:51.580Z,83.4
2017-12-16T16:17:54.004Z,83.2
2017-12-16T16:18:56.414Z,83.1
2017-12-16T16:19:59.131Z,83.2
2017-12-16T16:21:01.543Z,83.2
2017-12-16T16:22:03.957Z,83.1
2017-12-16T16:23:06.368Z,83.2
2017-12-16T16:24:08.771Z,83.1
2017-12-16T16:25:11.194Z,83.2
2017-12-16T16:26:13.605Z,83.1
2017-12-16T16:27:16.019Z,83.1
2017-12-16T16:28:18.710Z,83.1
2017-12-16T16:29:21.124Z,83.1
2017-12-16T16:30:23.536Z,83.2
2017-12-16T16:31:25.962Z,83.3
2017-12-16T16:32:28.357Z,83.3
2017-12-16T16:33:30.769Z,83.4
2017-12-16T16:34:33.185Z,83.4
2017-12-16T16:35:35.593Z,83.3
2017-12-16T16:36:38.011Z,83.4
2017-12-16T16:37:40.771Z,83.4
2017-12-16T16:38:43.124Z,83.4
2017-12-16T16:39:45.830Z,83.4
2017-12-16T16:40:48.245Z,83.5
2017-12-16T16:41:50.634Z,83.3
2017-12-16T16:42:53.044Z,83.3
2017-12-16T16:43:55.476Z,83.3
2017-12-16T16:44:57.887Z,83.4
2017-12-16T16:46:00.312Z,83.6
2017-12-16T16:47:02.720Z,83.7
2017-12-16T16:48:05.129Z,83.8
2017-12-16T16:49:07.551Z,83.9
2017-12-16T16:50:09.959Z,83.8
2017-12-16T16:51:12.359Z,83.7
2017-12-16T16:52:14.772Z,83.5
2017-12-16T16:53:17.178Z,83.5
2017-12-16T16:54:19.590Z,83.5
2017-12-16T16:55:22.000Z,83.4
2017-12-16T16:56:24.424Z,83.4
2017-12-16T16:57:26.840Z,83.2
2017-12-16T16:58:29.243Z,83.4
2017-12-16T16:59:31.953Z,83.4
2017-12-16T17:00:34.372Z,83.3
2017-12-16T17:01:37.064Z,83.3
2017-12-16T17:02:39.758Z,83.3
2017-12-16T17:03:42.159Z,83.4
2017-12-16T17:04:44.565Z,83.3
2017-12-16T17:05:46.991Z,83.2
2017-12-16T17:06:49.673Z,83.2
2017-12-16T17:07:52.110Z,83.2
2017-12-16T17:08:54.503Z,83.2
2017-12-16T17:09:56.917Z,83.2
2017-12-16T17:10:59.335Z,83.2
2017-12-16T17:12:01.754Z,83.2
2017-12-16T17:13:04.154Z,83.3
2017-12-16T17:14:06.576Z,83.2
2017-12-16T17:15:08.991Z,83.1
2017-12-16T17:16:11.404Z,82.9
2017-12-16T17:17:13.821Z,82.9
2017-12-16T17:18:16.512Z,83
2017-12-16T17:19:18.921Z,83.1
2017-12-16T17:20:21.342Z,83
2017-12-16T17:21:23.745Z,83
2017-12-16T17:22:26.735Z,83
2017-12-16T17:23:29.145Z,83.2
2017-12-16T17:24:31.553Z,83.3
2017-12-16T17:25:33.970Z,83.3
2017-12-16T17:26:36.373Z,83.2
2017-12-16T17:27:38.787Z,83.3
2017-12-16T17:28:42.241Z,83.1
2017-12-16T17:29:45.616Z,83.1
2017-12-16T17:30:48.021Z,83.1
2017-12-16T17:31:50.445Z,83.1
2017-12-16T17:32:52.851Z,83
2017-12-16T17:33:55.261Z,83.1
2017-12-16T17:34:57.677Z,83.1
2017-12-16T17:36:00.095Z,83
2017-12-16T17:37:02.509Z,83
2017-12-16T17:38:04.935Z,83.2
2017-12-16T17:39:07.342Z,83.1
2017-12-16T17:40:09.754Z,83
2017-12-16T17:41:12.175Z,82.9
2017-12-16T17:42:14.588Z,82.9
2017-12-16T17:43:16.998Z,83
2017-12-16T17:44:19.414Z,83
2017-12-16T17:45:22.118Z,83.1
2017-12-16T17:46:24.534Z,83.3
2017-12-16T17:47:26.947Z,83
2017-12-16T17:48:29.362Z,83.1
2017-12-16T17:49:31.778Z,83.2
2017-12-16T17:50:34.184Z,83.1
2017-12-16T17:51:36.596Z,83.1
2017-12-16T17:52:39.009Z,83
2017-12-16T17:53:41.706Z,83
2017-12-16T17:54:44.118Z,83
2017-12-16T17:55:46.529Z,83
2017-12-16T17:56:48.941Z,83.1
2017-12-16T17:57:51.362Z,83
2017-12-16T17:58:53.774Z,83.1
2017-12-16T17:59:56.468Z,83.1
2017-12-16T18:00:58.877Z,83.1
2017-12-16T18:02:01.289Z,83.2
2017-12-16T18:03:03.701Z,83.3
2017-12-16T18:04:06.117Z,83.2
2017-12-16T18:05:08.518Z,83.2
2017-12-16T18:06:11.225Z,83.2
2017-12-16T18:07:13.624Z,83.2
2017-12-16T18:08:16.036Z,83.2
2017-12-16T18:09:18.450Z,83.3
2017-12-16T18:10:20.862Z,83.2
2017-12-16T18:11:23.272Z,83.1
2017-12-16T18:12:25.693Z,82.9
2017-12-16T18:13:28.086Z,83.1
2017-12-16T18:14:30.515Z,83.1
2017-12-16T18:15:32.926Z,83.2
2017-12-16T18:16:35.611Z,83.2
2017-12-16T18:17:38.023Z,83.3
2017-12-16T18:18:40.433Z,83.2
2017-12-16T18:19:42.839Z,83.1
2017-12-16T18:20:45.243Z,83.2
2017-12-16T18:21:47.663Z,83.3
2017-12-16T18:22:50.073Z,83.1
2017-12-16T18:23:52.488Z,83.2
2017-12-16T18:24:54.898Z,83.2
2017-12-16T18:25:57.306Z,83.3
2017-12-16T18:26:59.706Z,83.4
2017-12-16T18:28:02.122Z,83.2
2017-12-16T18:29:04.522Z,83.1
2017-12-16T18:30:06.945Z,83
2017-12-16T18:31:09.629Z,83.1
2017-12-16T18:32:12.795Z,83.1
2017-12-16T18:33:15.208Z,83.3
2017-12-16T18:34:17.625Z,83.3
2017-12-16T18:35:20.034Z,83.4
2017-12-16T18:36:22.445Z,83.4
2017-12-16T18:37:25.144Z,83.3
2017-12-16T18:38:27.556Z,83.3
2017-12-16T18:39:29.959Z,83.3
2017-12-16T18:40:32.376Z,83.2
2017-12-16T18:41:34.784Z,83.2
2017-12-16T18:42:37.189Z,83.3
2017-12-16T18:43:39.603Z,83.5
2017-12-16T18:44:42.018Z,83.5
2017-12-16T18:45:44.426Z,83.3
2017-12-16T18:46:46.847Z,83.3
2017-12-16T18:47:49.240Z,83.5
2017-12-16T18:48:51.648Z,83.5
2017-12-16T18:49:54.066Z,83.5
2017-12-16T18:50:56.477Z,83.5
2017-12-16T18:51:59.167Z,83.4
2017-12-16T18:53:01.586Z,83.4
2017-12-16T18:54:04.003Z,83.4
2017-12-16T18:55:06.402Z,83.4
2017-12-16T18:56:08.814Z,83.4
2017-12-16T18:57:11.222Z,83.3
2017-12-16T18:58:13.640Z,83.3
2017-12-16T18:59:16.061Z,83.2
2017-12-16T19:00:18.466Z,83.1
2017-12-16T19:01:20.877Z,83.2
2017-12-16T19:02:23.585Z,83.3
2017-12-16T19:03:25.994Z,83.3
2017-12-16T19:04:28.409Z,83.5
2017-12-16T19:05:30.823Z,83.6
2017-12-16T19:06:33.232Z,83.7
2017-12-16T19:07:35.642Z,83.6
2017-12-16T19:08:38.330Z,83.5
2017-12-16T19:09:41.019Z,83.5
2017-12-16T19:10:43.428Z,83.5
2017-12-16T19:11:45.853Z,83.5
2017-12-16T19:12:48.558Z,83.7
2017-12-16T19:13:50.962Z,83.5
2017-12-16T19:14:53.666Z,83.5
2017-12-16T19:15:56.091Z,83.5
2017-12-16T19:16:58.501Z,83.6
2017-12-16T19:18:00.915Z,83.6
2017-12-16T19:19:03.325Z,83.7
2017-12-16T19:20:05.729Z,83.7
2017-12-16T19:21:08.154Z,83.5
2017-12-16T19:22:10.552Z,83.5
2017-12-16T19:23:13.252Z,83.5
2017-12-16T19:24:15.666Z,83.5
2017-12-16T19:25:18.359Z,83.6
2017-12-16T19:26:20.762Z,83.7
2017-12-16T19:27:23.183Z,83.7
2017-12-16T19:28:25.588Z,83.8
2017-12-16T19:29:28.005Z,83.8
2017-12-16T19:30:30.418Z,83.7
2017-12-16T19:31:32.823Z,83.6
2017-12-16T19:32:35.228Z,83.5
2017-12-16T19:33:37.701Z,83.4
2017-12-16T19:34:40.324Z,83.3
2017-12-16T19:35:42.747Z,83.4
2017-12-16T19:36:45.150Z,83.6
2017-12-16T19:37:47.570Z,83.6
2017-12-16T19:38:49.974Z,83.8
2017-12-16T19:39:52.380Z,83.6
2017-12-16T19:40:54.785Z,83.6
2017-12-16T19:41:57.195Z,83.7
2017-12-16T19:42:59.594Z,83.7
2017-12-16T19:44:02.009Z,83.9
2017-12-16T19:45:04.429Z,83.9
2017-12-16T19:46:06.846Z,84
2017-12-16T19:47:09.255Z,83.8
2017-12-16T19:48:11.669Z,83.8
2017-12-16T19:49:14.071Z,83.8
2017-12-16T19:50:17.052Z,83.6
2017-12-16T19:51:19.457Z,83.6
2017-12-16T19:52:21.912Z,83.6
2017-12-16T19:53:24.322Z,83.6
2017-12-16T19:54:26.716Z,83.6
2017-12-16T19:55:29.122Z,83.5
2017-12-16T19:56:31.828Z,83.5
2017-12-16T19:57:34.241Z,83.6
2017-12-16T19:58:36.643Z,83.5
2017-12-16T19:59:39.440Z,83.5
2017-12-16T20:00:41.844Z,83.7
2017-12-16T20:01:44.258Z,83.6
2017-12-16T20:02:46.676Z,83.7
2017-12-16T20:03:49.360Z,83.7
2017-12-16T20:04:51.767Z,83.7
2017-12-16T20:05:54.178Z,83.6
2017-12-16T20:06:56.595Z,83.6
2017-12-16T20:07:58.996Z,83.5
2017-12-16T20:09:01.394Z,83.6
2017-12-16T20:10:04.374Z,83.7
2017-12-16T20:11:06.787Z,83.7
2017-12-16T20:12:09.489Z,83.7
2017-12-16T20:13:11.899Z,83.5
2017-12-16T20:14:14.323Z,83.5
2017-12-16T20:15:16.717Z,83.5
2017-12-16T20:16:19.133Z,83.5
2017-12-16T20:17:21.543Z,83.5
2017-12-16T20:18:23.945Z,83.5
2017-12-16T20:19:26.346Z,83.5
2017-12-16T20:20:28.766Z,83.5
2017-12-16T20:21:31.172Z,83.6
2017-12-16T20:22:33.880Z,83.6
2017-12-16T20:23:36.291Z,83.5
2017-12-16T20:24:38.704Z,83.5
2017-12-16T20:25:41.106Z,83.4
2017-12-16T20:26:43.514Z,83.4
2017-12-16T20:27:45.914Z,83.5
2017-12-16T20:28:48.609Z,83.4
2017-12-16T20:29:51.018Z,83.5
2017-12-16T20:30:53.427Z,83.5
2017-12-16T20:31:55.842Z,83.5
2017-12-16T20:32:58.249Z,83.7
2017-12-16T20:34:00.652Z,83.7
2017-12-16T20:35:03.078Z,83.7
2017-12-16T20:36:05.768Z,83.8
2017-12-16T20:37:08.170Z,83.7
2017-12-16T20:38:10.588Z,83.6
2017-12-16T20:39:13.294Z,83.7
2017-12-16T20:40:15.706Z,83.8
2017-12-16T20:41:18.132Z,83.7
2017-12-16T20:42:20.525Z,83.8
2017-12-16T20:43:22.932Z,83.7
2017-12-16T20:44:25.346Z,83.8
2017-12-16T20:45:27.747Z,83.7
2017-12-16T20:46:30.163Z,83.7
2017-12-16T20:47:32.578Z,83.7
2017-12-16T20:48:34.984Z,83.7
2017-12-16T20:49:37.386Z,83.7
2017-12-16T20:50:39.795Z,83.8
2017-12-16T20:51:42.222Z,83.7
2017-12-16T20:52:44.626Z,83.6
2017-12-16T20:53:47.039Z,83.6
2017-12-16T20:54:49.437Z,83.6
2017-12-16T20:55:51.840Z,83.6
2017-12-16T20:56:54.541Z,83.6
2017-12-16T20:57:56.945Z,83.7
2017-12-16T20:58:59.341Z,83.7
2017-12-16T21:00:01.766Z,83.8
2017-12-16T21:01:04.449Z,83.9
2017-12-16T21:02:06.874Z,83.8
2017-12-16T21:03:09.556Z,83.7
2017-12-16T21:04:11.961Z,83.6
2017-12-16T21:05:14.370Z,83.6
2017-12-16T21:06:16.788Z,83.7
2017-12-16T21:07:19.206Z,83.7
2017-12-16T21:08:21.612Z,83.8
2017-12-16T21:09:24.301Z,83.8
2017-12-16T21:10:26.721Z,83.8
2017-12-16T21:11:29.417Z,83.7
2017-12-16T21:12:31.830Z,83.8
2017-12-16T21:13:34.226Z,83.9
2017-12-16T21:14:36.921Z,83.9
2017-12-16T21:15:39.335Z,84
2017-12-16T21:16:41.749Z,83.9
2017-12-16T21:17:44.149Z,83.9
2017-12-16T21:18:46.565Z,83.8
2017-12-16T21:19:48.974Z,83.7
2017-12-16T21:20:51.385Z,83.7
2017-12-16T21:21:54.072Z,83.9
2017-12-16T21:22:56.474Z,84.1
2017-12-16T21:23:59.167Z,84.1
2017-12-16T21:25:01.582Z,84.1
2017-12-16T21:26:03.984Z,84.1
2017-12-16T21:27:06.390Z,84.1
2017-12-16T21:28:08.804Z,84.2
2017-12-16T21:29:11.222Z,84.2
2017-12-16T21:30:13.953Z,84.2
2017-12-16T21:31:16.362Z,84.2
2017-12-16T21:32:18.766Z,84.3
2017-12-16T21:33:21.190Z,84.2
2017-12-16T21:34:23.877Z,84.1
2017-12-16T21:35:26.290Z,83.9
2017-12-16T21:36:28.692Z,84.1
2017-12-16T21:37:31.106Z,83.9
2017-12-16T21:38:33.505Z,84
2017-12-16T21:39:35.925Z,84
2017-12-16T21:40:38.332Z,84.3
2017-12-16T21:41:40.735Z,84.3
2017-12-16T21:42:43.152Z,84.4
2017-12-16T21:43:45.841Z,84.3
2017-12-16T21:44:48.283Z,84.1
2017-12-16T21:45:50.968Z,84.1
2017-12-16T21:46:53.370Z,84.1
2017-12-16T21:47:55.787Z,84.3
2017-12-16T21:48:58.206Z,84.4
2017-12-16T21:50:00.607Z,84.5
2017-12-16T21:51:03.021Z,84.6
2017-12-16T21:52:05.711Z,84.5
2017-12-16T21:53:08.121Z,84.6
2017-12-16T21:54:10.530Z,84.7
2017-12-16T21:55:12.945Z,84.7
2017-12-16T21:56:15.350Z,84.7
2017-12-16T21:57:17.767Z,84.7
2017-12-16T21:58:20.191Z,84.6
2017-12-16T21:59:22.903Z,84.7
2017-12-16T22:00:25.301Z,84.5
2017-12-16T22:01:27.709Z,84.3
2017-12-16T22:02:30.110Z,84.3
2017-12-16T22:03:32.819Z,84.3
2017-12-16T22:04:35.238Z,84.3
2017-12-16T22:05:37.648Z,84.4
2017-12-16T22:06:40.053Z,84.3
2017-12-16T22:07:42.471Z,84.5
2017-12-16T22:08:45.168Z,84.5
2017-12-16T22:09:47.589Z,84.5
2017-12-16T22:10:50.048Z,84.6
2017-12-16T22:11:52.403Z,84.3
2017-12-16T22:12:54.814Z,84.3
2017-12-16T22:13:57.235Z,84.1
2017-12-16T22:14:59.635Z,84.1
2017-12-16T22:16:02.053Z,84.1
2017-12-16T22:17:04.461Z,84
2017-12-16T22:18:07.155Z,83.9
2017-12-16T22:19:09.559Z,84.1
2017-12-16T22:20:12.023Z,84.1
2017-12-16T22:21:14.379Z,84.3
2017-12-16T22:22:17.074Z,84.3
2017-12-16T22:23:19.484Z,84.5
2017-12-16T22:24:22.210Z,84.5
2017-12-16T22:25:24.610Z,84.5
2017-12-16T22:26:27.023Z,84.5
2017-12-16T22:27:29.436Z,84.3
2017-12-16T22:28:31.844Z,84.1
2017-12-16T22:29:34.254Z,84.1
2017-12-16T22:30:36.665Z,84.1
2017-12-16T22:31:39.058Z,84.1
2017-12-16T22:32:41.480Z,84
2017-12-16T22:33:43.899Z,84
2017-12-16T22:34:46.618Z,84.1
2017-12-16T22:35:49.022Z,84.2
2017-12-16T22:36:51.433Z,84.1
2017-12-16T22:37:53.840Z,84.3
2017-12-16T22:38:56.533Z,84.2
2017-12-16T22:39:58.928Z,84.2
2017-12-16T22:41:01.336Z,84.2
2017-12-16T22:42:03.753Z,84.3
2017-12-16T22:43:06.163Z,84
2017-12-16T22:44:08.574Z,84
2017-12-16T22:45:10.992Z,84
2017-12-16T22:46:13.396Z,84.1
2017-12-16T22:47:15.802Z,84.3
2017-12-16T22:48:18.500Z,84.2
2017-12-16T22:49:20.923Z,84.3
2017-12-16T22:50:23.316Z,84.2
2017-12-16T22:51:25.738Z,84.1
2017-12-16T22:52:28.158Z,84
2017-12-16T22:53:30.571Z,84
2017-12-16T22:54:33.273Z,83.9
2017-12-16T22:55:35.970Z,83.8
2017-12-16T22:56:38.366Z,83.9
2017-12-16T22:57:41.077Z,83.8
2017-12-16T22:58:43.491Z,83.7
2017-12-16T22:59:45.892Z,83.6
2017-12-16T23:00:48.405Z,83.5
2017-12-16T23:01:50.812Z,83.8
2017-12-16T23:02:53.230Z,83.9
2017-12-16T23:03:55.639Z,83.9
2017-12-16T23:04:58.040Z,83.9
2017-12-16T23:06:00.450Z,83.8
2017-12-16T23:07:02.859Z,83.6
2017-12-16T23:08:05.277Z,83.7
2017-12-16T23:09:07.979Z,83.8
2017-12-16T23:10:10.435Z,83.7
2017-12-16T23:11:12.849Z,83.8
2017-12-16T23:12:15.270Z,83.8
2017-12-16T23:13:17.965Z,83.7
2017-12-16T23:14:20.679Z,83.7
2017-12-16T23:15:23.082Z,83.7
2017-12-16T23:16:25.492Z,83.8
2017-12-16T23:17:28.193Z,83.6
2017-12-16T23:18:30.603Z,83.5
2017-12-16T23:19:33.035Z,83.5
2017-12-16T23:20:35.438Z,83.4
2017-12-16T23:21:38.112Z,83.4
2017-12-16T23:22:40.803Z,83.4